createdAt,value
2023-01-13T17:44:14.519Z,19.70
2023-01-13T17:46:42.285Z,23.20
2023-01-13T17:49:13.535Z,23.20
2023-01-13T17:51:40.326Z,23.20
2023-01-13T17:54:11.958Z,23.20
2023-01-13T17:56:40.406Z,23.30
2023-01-13T17:59:09.476Z,23.30
2023-01-13T18:01:37.523Z,23.30
2023-01-13T18:04:04.701Z,23.30
2023-01-13T18:06:31.454Z,23.40
2023-01-13T18:08:59.703Z,23.40
2023-01-13T18:11:27.227Z,23.40
2023-01-13T18:13:56.779Z,23.40
2023-01-13T18:16:24.848Z,23.40
2023-01-13T18:18:53.560Z,23.50
2023-01-13T18:21:44.969Z,23.50
2023-01-13T18:24:32.108Z,23.50
2023-01-13T18:27:18.316Z,23.50
2023-01-13T18:29:45.881Z,23.50
2023-01-13T18:32:13.188Z,23.50
2023-01-13T18:34:40.257Z,23.50
2023-01-13T18:37:09.189Z,23.50
2023-01-13T18:39:38.793Z,23.50
2023-01-13T18:42:25.732Z,23.50
2023-01-13T18:44:53.357Z,23.50
2023-01-13T18:47:20.320Z,23.50
2023-01-13T18:49:47.196Z,23.50
2023-01-13T18:52:14.109Z,23.50
2023-01-13T18:54:40.901Z,23.50
2023-01-13T18:57:07.677Z,23.50
2023-01-13T18:59:34.883Z,23.50
2023-01-13T19:02:02.932Z,23.50
2023-01-13T19:04:29.843Z,23.50
2023-01-13T19:07:00.900Z,23.60
2023-01-13T19:09:29.258Z,23.50
2023-01-13T19:11:57.457Z,23.50
2023-01-13T19:14:34.593Z,23.60
2023-01-13T19:17:15.514Z,23.50
2023-01-13T19:19:44.487Z,23.60
2023-01-13T19:22:17.275Z,23.60
2023-01-13T19:24:44.086Z,23.60
2023-01-13T19:27:15.236Z,23.60
2023-01-13T19:29:46.610Z,23.60
2023-01-13T19:32:20.127Z,23.60
2023-01-13T19:34:49.134Z,23.60
2023-01-13T19:37:15.837Z,23.60
2023-01-13T19:39:42.736Z,23.50
2023-01-13T19:42:32.088Z,23.50
2023-01-13T19:45:17.526Z,23.40
2023-01-13T19:47:45.571Z,23.30
2023-01-13T19:50:13.581Z,23.20
2023-01-13T19:52:40.986Z,23.10
2023-01-13T19:55:07.966Z,23.00
2023-01-13T19:57:34.718Z,23.00
2023-01-13T20:00:01.496Z,22.90
2023-01-13T20:02:28.484Z,22.90
2023-01-13T20:04:57.479Z,22.90
2023-01-13T20:07:26.013Z,22.80
2023-01-13T20:09:52.858Z,22.80
2023-01-13T20:12:21.070Z,22.80
2023-01-13T20:14:48.075Z,22.80
2023-01-13T20:17:18.018Z,22.70
2023-01-13T20:19:44.908Z,22.70
2023-01-13T20:22:12.046Z,22.70
2023-01-13T20:24:38.973Z,22.70
2023-01-13T20:27:06.413Z,22.60
2023-01-13T20:29:33.479Z,22.60
2023-01-13T20:32:00.300Z,22.60
2023-01-13T20:34:27.724Z,22.60
2023-01-13T20:36:54.435Z,22.60
2023-01-13T20:39:24.835Z,22.60
2023-01-13T20:42:10.286Z,22.60
2023-01-13T20:44:37.027Z,22.50
2023-01-13T20:47:03.826Z,22.50
2023-01-13T20:49:30.961Z,22.50
2023-01-13T20:51:58.169Z,22.50
2023-01-13T20:54:25.475Z,22.50
2023-01-13T20:56:52.309Z,22.40
2023-01-13T20:59:19.069Z,22.50
2023-01-13T21:01:45.789Z,22.40
2023-01-13T21:04:13.272Z,22.40
2023-01-13T21:06:41.506Z,22.40
2023-01-13T21:09:08.902Z,22.40
2023-01-13T21:11:54.182Z,22.40
2023-01-13T21:14:42.416Z,22.40
2023-01-13T21:17:31.298Z,22.40
2023-01-13T21:19:58.556Z,22.40
2023-01-13T21:22:26.101Z,22.40
2023-01-13T21:24:53.338Z,22.40
2023-01-13T21:27:20.251Z,22.40
2023-01-13T21:29:47.080Z,22.40
2023-01-13T21:32:14.158Z,22.40
2023-01-13T21:34:41.094Z,22.50
2023-01-13T21:37:07.826Z,22.50
2023-01-13T21:39:34.501Z,22.50
2023-01-13T21:42:19.731Z,22.40
2023-01-13T21:45:04.891Z,22.40
2023-01-13T21:47:50.238Z,22.30
2023-01-13T21:50:19.755Z,22.30
2023-01-13T21:52:48.008Z,22.20
2023-01-13T21:55:28.692Z,22.20
2023-01-13T21:58:00.779Z,22.20
2023-01-13T22:00:31.070Z,22.20
2023-01-13T22:02:59.528Z,22.20
2023-01-13T22:05:26.730Z,22.20
2023-01-13T22:07:53.727Z,22.20
2023-01-13T22:10:22.772Z,22.20
2023-01-13T22:12:53.584Z,22.20
2023-01-13T22:15:21.980Z,22.20
2023-01-13T22:17:52.683Z,22.20
2023-01-13T22:20:20.236Z,22.20
2023-01-13T22:22:47.217Z,22.20
2023-01-13T22:25:16.119Z,22.20
2023-01-13T22:27:44.498Z,22.20
2023-01-13T22:30:17.539Z,22.20
2023-01-13T22:32:45.152Z,22.20
2023-01-13T22:35:13.575Z,22.20
2023-01-13T22:37:41.714Z,22.20
2023-01-13T22:40:10.894Z,22.20
2023-01-13T22:42:42.594Z,22.10
2023-01-13T22:45:13.456Z,22.10
2023-01-13T22:47:40.250Z,22.20
2023-01-13T22:50:08.006Z,22.20
2023-01-13T22:52:35.652Z,22.20
2023-01-13T22:55:02.409Z,22.20
2023-01-13T22:57:36.716Z,22.20
2023-01-13T23:00:14.837Z,22.10
2023-01-13T23:02:41.795Z,22.20
2023-01-13T23:05:08.732Z,22.20
2023-01-13T23:07:36.171Z,22.10
2023-01-13T23:10:04.146Z,22.20
2023-01-13T23:12:30.983Z,22.20
2023-01-13T23:14:57.665Z,22.10
2023-01-13T23:17:24.570Z,22.20
2023-01-13T23:19:51.347Z,22.20
2023-01-13T23:22:18.066Z,22.20
2023-01-13T23:24:45.500Z,22.10
2023-01-13T23:27:12.210Z,22.10
2023-01-13T23:29:38.963Z,22.10
2023-01-13T23:32:05.945Z,22.10
2023-01-13T23:34:32.744Z,22.10
2023-01-13T23:36:59.511Z,22.10
2023-01-13T23:39:26.348Z,22.10
2023-01-13T23:41:53.023Z,22.10
2023-01-13T23:44:19.774Z,22.10
2023-01-13T23:46:46.702Z,22.10
2023-01-13T23:49:13.679Z,22.10
2023-01-13T23:51:40.690Z,22.10
2023-01-13T23:54:07.474Z,22.10
2023-01-13T23:56:39.123Z,22.10
2023-01-13T23:59:06.673Z,22.10
